Time;durP1;ratioP1;P1;durP2;ratioP2;P2;SDS_P1;SDS_P2;PMS_P1;PMS_P2;Temp;Humidity;BMP_temperature;BMP_pressure;BME280_temperature;BME280_humidity;BME280_pressure;Samples;Min_cycle;Max_cycle;Signal;HPM_P1;HPM_P2
2022/08/24 00:01:04;;;;;;;1999.90;999.90;;;22.80;99.90;;;;;;5033406;28;20411;-66
2022/08/24 00:03:30;;;;;;;1999.90;999.90;;;22.70;99.90;;;;;;5033399;28;20171;-66
2022/08/24 00:05:56;;;;;;;1999.90;999.90;;;22.60;99.90;;;;;;5033162;28;20476;-66
2022/08/24 00:08:22;;;;;;;1999.90;999.90;;;22.20;99.90;;;;;;5033213;28;20853;-65
2022/08/24 00:10:47;;;;;;;1999.90;999.90;;;21.90;99.90;;;;;;5033355;28;20246;-66
2022/08/24 00:13:14;;;;;;;1999.90;999.90;;;21.90;99.90;;;;;;5033226;28;20175;-66
2022/08/24 00:15:40;;;;;;;1999.90;999.90;;;21.70;99.90;;;;;;5033913;28;20238;-67
2022/08/24 00:18:06;;;;;;;1999.90;999.90;;;21.60;99.90;;;;;;5042436;28;20411;-68
2022/08/24 00:20:32;;;;;;;1999.90;999.90;;;21.70;99.90;;;;;;5043219;28;20400;-67
2022/08/24 00:22:57;;;;;;;1999.90;999.90;;;21.70;99.90;;;;;;5043079;28;20571;-67
2022/08/24 00:25:23;;;;;;;1999.90;999.90;;;21.70;99.90;;;;;;5068004;22;20491;-72
2022/08/24 00:27:49;;;;;;;1999.90;999.90;;;21.80;99.90;;;;;;5022339;28;20176;-72
2022/08/24 00:30:17;;;;;;;1999.90;999.90;;;21.80;99.90;;;;;;5025224;28;20392;-72
2022/08/24 00:32:44;;;;;;;1999.90;999.90;;;21.80;99.90;;;;;;5024650;28;20404;-71
2022/08/24 00:35:11;;;;;;;1999.90;999.90;;;21.90;99.90;;;;;;5022591;28;20407;-72
2022/08/24 00:37:38;;;;;;;1999.90;999.90;;;22.00;99.90;;;;;;5024093;28;20375;-71
2022/08/24 00:40:10;;;;;;;1999.90;999.90;;;22.00;99.90;;;;;;5023820;28;20405;-72
2022/08/24 00:42:37;;;;;;;1999.90;999.90;;;21.90;99.90;;;;;;5021154;28;20427;-72
2022/08/24 00:45:05;;;;;;;1999.90;999.90;;;21.90;99.90;;;;;;5023058;28;20408;-72
2022/08/24 00:47:48;;;;;;;1999.90;999.90;;;21.90;99.90;;;;;;5022773;28;20774;-72
2022/08/24 00:50:22;;;;;;;1999.90;999.90;;;21.80;99.90;;;;;;5022752;28;20381;-71
2022/08/24 00:52:58;;;;;;;1999.90;999.90;;;21.80;99.90;;;;;;5021471;28;20419;-72
2022/08/24 00:55:40;;;;;;;1999.90;999.90;;;21.70;99.90;;;;;;5021502;28;20500;-72
2022/08/24 00:58:14;;;;;;;1999.90;999.90;;;21.60;99.90;;;;;;5022156;28;20415;-72
2022/08/24 01:00:45;;;;;;;1999.90;999.90;;;21.50;99.90;;;;;;5021758;28;20434;-72
2022/08/24 01:03:12;;;;;;;1999.90;999.90;;;21.50;99.90;;;;;;5021371;28;20461;-72
2022/08/24 01:05:39;;;;;;;1999.90;999.90;;;21.40;99.90;;;;;;5020873;28;20436;-72
2022/08/24 01:08:08;;;;;;;1999.90;999.90;;;21.50;99.90;;;;;;5020471;28;20398;-72
2022/08/24 01:10:40;;;;;;;1999.90;999.90;;;21.40;99.90;;;;;;5020949;28;20434;-72
2022/08/24 01:13:08;;;;;;;1999.90;999.90;;;21.40;99.90;;;;;;5020784;28;20407;-72
2022/08/24 01:15:40;;;;;;;1999.90;999.90;;;21.50;99.90;;;;;;5021150;28;20427;-72
2022/08/24 01:21:03;;;;;;;1999.90;999.90;;;21.30;99.90;;;;;;5020843;28;20425;-72
2022/08/24 01:23:39;;;;;;;1999.90;999.90;;;21.30;99.90;;;;;;5021891;28;20950;-72
2022/08/24 01:26:08;;;;;;;1999.90;999.90;;;21.20;99.90;;;;;;5020935;28;20417;-72
2022/08/24 01:28:34;;;;;;;1999.90;999.90;;;21.10;99.90;;;;;;5021058;28;20713;-72
2022/08/24 01:31:00;;;;;;;1999.90;999.90;;;21.10;99.90;;;;;;5022271;28;20386;-72
2022/08/24 01:33:30;;;;;;;1999.90;999.90;;;21.10;99.90;;;;;;5021758;28;20808;-72
2022/08/24 01:36:23;;;;;;;1999.90;999.90;;;21.10;99.90;;;;;;5022592;28;20210;-72
2022/08/24 01:38:50;;;;;;;1999.90;999.90;;;21.10;99.90;;;;;;5014456;28;20406;-72
2022/08/24 01:41:15;;;;;;;1999.90;999.90;;;21.00;99.90;;;;;;5021200;28;20482;-72
2022/08/24 01:43:41;;;;;;;1999.90;999.90;;;20.80;99.90;;;;;;5019623;28;20417;-72
2022/08/24 01:46:07;;;;;;;1999.90;999.90;;;20.80;99.90;;;;;;5018435;28;20182;-72
2022/08/24 01:48:33;;;;;;;1999.90;999.90;;;20.70;99.90;;;;;;5012227;28;20170;-72
2022/08/24 01:50:58;;;;;;;1999.90;999.90;;;20.70;99.90;;;;;;5012132;28;20382;-72
2022/08/24 01:53:24;;;;;;;1999.90;999.90;;;20.60;99.90;;;;;;5012153;28;20176;-72
2022/08/24 01:55:50;;;;;;;1999.90;999.90;;;20.70;99.90;;;;;;5017865;28;20183;-72
2022/08/24 01:58:16;;;;;;;1999.90;999.90;;;20.70;99.90;;;;;;5023098;28;20420;-72
2022/08/24 02:00:43;;;;;;;1999.90;999.90;;;20.70;99.90;;;;;;5022562;28;20179;-72
2022/08/24 02:03:09;;;;;;;1999.90;999.90;;;20.70;99.90;;;;;;5023462;28;20198;-71
2022/08/24 02:05:35;;;;;;;1999.90;999.90;;;20.70;99.90;;;;;;5022964;28;20796;-72
2022/08/24 02:08:01;;;;;;;1999.90;999.90;;;20.70;99.90;;;;;;5022263;28;20195;-71
2022/08/24 02:10:28;;;;;;;1999.90;999.90;;;20.70;99.90;;;;;;5015789;28;20182;-72
2022/08/24 02:12:56;;;;;;;1999.90;999.90;;;20.70;99.90;;;;;;5015851;28;20412;-72
2022/08/24 02:15:27;;;;;;;1999.90;999.90;;;20.60;99.90;;;;;;5015612;28;21004;-71
2022/08/24 02:17:54;;;;;;;1999.90;999.90;;;20.50;99.90;;;;;;5015433;28;20419;-72
2022/08/24 02:20:20;;;;;;;1999.90;999.90;;;20.60;99.90;;;;;;5015597;28;20406;-72
2022/08/24 02:22:47;;;;;;;1999.90;999.90;;;20.50;99.90;;;;;;5015473;28;20510;-72
2022/08/24 02:25:13;;;;;;;1999.90;999.90;;;20.50;99.90;;;;;;5015368;28;20400;-71
2022/08/24 02:27:38;;;;;;;1999.90;999.90;;;20.40;99.90;;;;;;5015251;28;20406;-71
2022/08/24 02:30:05;;;;;;;1999.90;999.90;;;20.40;99.90;;;;;;5015387;28;20786;-72
2022/08/24 02:32:30;;;;;;;1999.90;999.90;;;20.40;99.90;;;;;;5015443;28;20167;-72
2022/08/24 02:34:56;;;;;;;1999.90;999.90;;;20.30;99.90;;;;;;5015224;28;20882;-72
2022/08/24 02:37:21;;;;;;;1999.90;999.90;;;20.30;99.90;;;;;;5015053;28;20261;-72
2022/08/24 02:39:47;;;;;;;1999.90;999.90;;;20.20;99.90;;;;;;5015241;28;20167;-71
2022/08/24 02:42:14;;;;;;;1999.90;999.90;;;20.20;99.90;;;;;;5015163;28;20200;-71
2022/08/24 02:44:40;;;;;;;1999.90;999.90;;;20.20;99.90;;;;;;5015224;28;20195;-71
2022/08/24 02:47:06;;;;;;;1999.90;999.90;;;20.30;99.90;;;;;;5014804;28;20421;-72
2022/08/24 02:49:31;;;;;;;1999.90;999.90;;;20.20;99.90;;;;;;5015106;28;20549;-72
2022/08/24 02:51:57;;;;;;;1999.90;999.90;;;20.20;99.90;;;;;;5019859;28;20411;-72
2022/08/24 02:54:23;;;;;;;1999.90;999.90;;;20.20;99.90;;;;;;5022259;28;20165;-72
2022/08/24 02:56:49;;;;;;;1999.90;999.90;;;20.10;99.90;;;;;;5022184;28;20452;-72
2022/08/24 02:59:15;;;;;;;1999.90;999.90;;;20.20;99.90;;;;;;5022178;28;20259;-72
2022/08/24 03:01:41;;;;;;;1999.90;999.90;;;20.20;99.90;;;;;;5021672;28;20272;-72
2022/08/24 03:04:07;;;;;;;1999.90;999.90;;;20.20;99.90;;;;;;5021012;28;20438;-72
2022/08/24 03:06:32;;;;;;;1999.90;999.90;;;20.10;99.90;;;;;;5020986;28;20240;-72
2022/08/24 03:08:58;;;;;;;1999.90;999.90;;;20.20;99.90;;;;;;5021942;28;20180;-72
2022/08/24 03:11:24;;;;;;;1999.90;999.90;;;20.10;99.90;;;;;;5022297;28;20170;-72
2022/08/24 03:13:50;;;;;;;1999.90;999.90;;;20.10;99.90;;;;;;5021788;28;20247;-72
2022/08/24 03:16:16;;;;;;;1999.90;999.90;;;20.00;99.90;;;;;;5022048;28;20473;-72
2022/08/24 03:18:42;;;;;;;1999.90;999.90;;;19.90;99.90;;;;;;5021946;28;20168;-72
2022/08/24 03:21:09;;;;;;;1999.90;999.90;;;19.80;99.90;;;;;;5021381;28;20191;-72
2022/08/24 03:23:35;;;;;;;1999.90;999.90;;;19.70;99.90;;;;;;5020786;28;20488;-72
2022/08/24 03:26:01;;;;;;;1999.90;999.90;;;19.70;99.90;;;;;;5019485;28;20446;-72
2022/08/24 03:28:27;;;;;;;1999.90;999.90;;;19.70;99.90;;;;;;5014329;28;20446;-72
2022/08/24 03:30:53;;;;;;;1999.90;999.90;;;19.60;99.90;;;;;;5014389;28;20422;-72
2022/08/24 03:33:19;;;;;;;1999.90;999.90;;;19.70;99.90;;;;;;5014233;28;20489;-72
2022/08/24 03:35:44;;;;;;;1999.90;999.90;;;19.60;99.90;;;;;;5014111;28;20202;-72
2022/08/24 03:38:12;;;;;;;1999.90;999.90;;;19.60;99.90;;;;;;5013913;28;20211;-72
2022/08/24 03:40:39;;;;;;;1999.90;999.90;;;19.50;99.90;;;;;;5014108;28;20234;-71
2022/08/24 03:43:05;;;;;;;1999.90;999.90;;;19.40;99.90;;;;;;5013867;28;20447;-71
2022/08/24 03:45:31;;;;;;;1999.90;999.90;;;19.40;99.90;;;;;;5013954;28;20430;-71
2022/08/24 03:47:57;;;;;;;1999.90;999.90;;;19.40;99.90;;;;;;5013666;28;20400;-71
2022/08/24 03:50:24;;;;;;;1999.90;999.90;;;19.50;99.90;;;;;;5014154;28;20420;-71
2022/08/24 03:52:50;;;;;;;1999.90;999.90;;;19.40;99.90;;;;;;5014047;28;20382;-71
2022/08/24 03:55:17;;;;;;;1999.90;999.90;;;19.40;99.90;;;;;;5013861;28;20433;-71
2022/08/24 03:57:42;;;;;;;1999.90;999.90;;;19.40;99.90;;;;;;5013506;28;20404;-71
2022/08/24 04:00:10;;;;;;;1999.90;999.90;;;19.40;99.90;;;;;;5013744;28;20495;-71
2022/08/24 04:02:36;;;;;;;1999.90;999.90;;;19.30;99.90;;;;;;5013478;28;20293;-71
2022/08/24 04:05:03;;;;;;;1999.90;999.90;;;19.30;99.90;;;;;;5013559;28;20442;-71
2022/08/24 04:07:30;;;;;;;1999.90;999.90;;;19.30;99.90;;;;;;5015910;28;20415;-72
2022/08/24 04:09:55;;;;;;;1999.90;999.90;;;19.40;99.90;;;;;;5019475;28;20466;-71
2022/08/24 04:12:22;;;;;;;1999.90;999.90;;;19.40;99.90;;;;;;5018913;28;20404;-71
2022/08/24 04:14:56;;;;;;;1999.90;999.90;;;19.40;99.90;;;;;;5018154;28;20178;-72
2022/08/24 04:17:21;;;;;;;1999.90;999.90;;;19.40;99.90;;;;;;5019863;28;20712;-71
2022/08/24 04:19:56;;;;;;;1999.90;999.90;;;19.40;99.90;;;;;;5019534;28;20458;-72
2022/08/24 04:22:23;;;;;;;1999.90;999.90;;;19.40;99.90;;;;;;5019812;28;20202;-71
2022/08/24 04:24:49;;;;;;;1999.90;999.90;;;19.40;99.90;;;;;;5019703;28;20786;-72
2022/08/24 04:27:15;;;;;;;1999.90;999.90;;;19.40;99.90;;;;;;5018799;28;20424;-71
2022/08/24 04:29:40;;;;;;;1999.90;999.90;;;19.30;99.90;;;;;;5019815;28;20387;-71
2022/08/24 04:32:06;;;;;;;1999.90;999.90;;;19.30;99.90;;;;;;5020028;28;20172;-72
2022/08/24 04:34:32;;;;;;;1999.90;999.90;;;19.30;99.90;;;;;;5020701;28;20169;-71
2022/08/24 04:36:58;;;;;;;1999.90;999.90;;;19.30;99.90;;;;;;5020534;28;20189;-71
2022/08/24 04:39:23;;;;;;;1999.90;999.90;;;19.20;99.90;;;;;;5020455;28;20875;-71
2022/08/24 04:41:49;;;;;;;1999.90;999.90;;;19.30;99.90;;;;;;5019480;28;20204;-71
2022/08/24 04:44:15;;;;;;;1999.90;999.90;;;19.20;99.90;;;;;;5020132;28;20209;-71
2022/08/24 04:46:41;;;;;;;1999.90;999.90;;;19.20;99.90;;;;;;5019998;28;20210;-71
2022/08/24 04:49:07;;;;;;;1999.90;999.90;;;19.20;99.90;;;;;;5020780;28;20165;-71
2022/08/24 04:51:33;;;;;;;1999.90;999.90;;;19.10;99.90;;;;;;5020659;28;20276;-71
2022/08/24 04:53:59;;;;;;;1999.90;999.90;;;19.20;99.90;;;;;;5019368;28;20419;-71
2022/08/24 04:56:25;;;;;;;1999.90;999.90;;;19.20;99.90;;;;;;5019455;28;20201;-71
2022/08/24 04:58:52;;;;;;;1999.90;999.90;;;19.20;99.90;;;;;;5018597;28;20463;-72
2022/08/24 05:01:21;;;;;;;1999.90;999.90;;;19.20;99.90;;;;;;5017855;28;20415;-71
2022/08/24 05:03:49;;;;;;;1999.90;999.90;;;19.10;99.90;;;;;;5019272;28;20419;-71
2022/08/24 05:06:16;;;;;;;1999.90;999.90;;;19.20;99.90;;;;;;5018439;28;20802;-71
2022/08/24 05:08:43;;;;;;;1999.90;999.90;;;19.20;99.90;;;;;;5018062;28;20414;-72
2022/08/24 05:11:08;;;;;;;1999.90;999.90;;;19.20;99.90;;;;;;5017951;28;20406;-72
2022/08/24 05:13:35;;;;;;;1999.90;999.90;;;19.20;99.90;;;;;;5018192;28;20863;-72
2022/08/24 05:16:09;;;;;;;1999.90;999.90;;;19.20;99.90;;;;;;5018529;28;20432;-72
2022/08/24 05:18:35;;;;;;;1999.90;999.90;;;19.20;99.90;;;;;;5018548;28;20419;-72
2022/08/24 05:21:00;;;;;;;1999.90;999.90;;;19.20;99.90;;;;;;5017462;28;20776;-72
2022/08/24 05:23:26;;;;;;;1999.90;999.90;;;19.10;99.90;;;;;;5017042;28;20209;-72
2022/08/24 05:25:52;;;;;;;1999.90;999.90;;;19.10;99.90;;;;;;5017093;28;20212;-72
2022/08/24 05:28:18;;;;;;;1999.90;999.90;;;19.10;99.90;;;;;;5017756;28;20414;-72
2022/08/24 05:30:44;;;;;;;1999.90;999.90;;;19.10;99.90;;;;;;5017767;28;20212;-72
2022/08/24 05:33:10;;;;;;;1999.90;999.90;;;19.20;99.90;;;;;;5019204;28;20426;-72
2022/08/24 05:35:37;;;;;;;1999.90;999.90;;;19.30;99.90;;;;;;5018338;28;20197;-72
2022/08/24 05:38:03;;;;;;;1999.90;999.90;;;19.30;99.90;;;;;;5019871;28;20416;-71
2022/08/24 05:40:29;;;;;;;1999.90;999.90;;;19.40;99.90;;;;;;5020148;28;20470;-71
2022/08/24 05:42:54;;;;;;;1999.90;999.90;;;19.50;99.90;;;;;;5020572;28;20209;-71
2022/08/24 05:45:20;;;;;;;1999.90;999.90;;;19.70;99.90;;;;;;5020213;28;20201;-71
2022/08/24 05:47:46;;;;;;;1999.90;999.90;;;19.70;99.90;;;;;;5020625;28;20166;-71
2022/08/24 05:50:11;;;;;;;1999.90;999.90;;;19.80;99.90;;;;;;5021666;28;20173;-71
2022/08/24 05:52:37;;;;;;;1999.90;999.90;;;19.90;99.90;;;;;;5021023;28;20181;-71
2022/08/24 05:55:03;;;;;;;1999.90;999.90;;;20.00;99.90;;;;;;5020649;28;20230;-71
2022/08/24 05:57:34;;;;;;;1999.90;999.90;;;20.10;99.90;;;;;;5020425;28;20555;-71
2022/08/24 06:00:00;;;;;;;1999.90;999.90;;;20.20;99.90;;;;;;5020471;28;20419;-71
2022/08/24 06:02:25;;;;;;;1999.90;999.90;;;20.20;99.90;;;;;;5020773;28;20463;-71
2022/08/24 06:04:51;;;;;;;1999.90;999.90;;;20.30;99.90;;;;;;5020551;28;20853;-71
2022/08/24 06:07:17;;;;;;;1999.90;999.90;;;20.40;99.90;;;;;;5019585;28;20176;-71
2022/08/24 06:09:43;;;;;;;1999.90;999.90;;;20.40;99.90;;;;;;5019514;28;20258;-71
2022/08/24 06:12:10;;;;;;;1999.90;999.90;;;20.60;99.90;;;;;;5019675;28;20171;-71
2022/08/24 06:14:36;;;;;;;1999.90;999.90;;;20.70;99.90;;;;;;5019715;28;20179;-72
2022/08/24 06:17:07;;;;;;;1999.90;999.90;;;20.70;99.90;;;;;;5019103;28;20418;-71
2022/08/24 06:19:34;;;;;;;1999.90;999.90;;;20.80;99.90;;;;;;5017766;28;20844;-71
2022/08/24 06:22:00;;;;;;;1999.90;999.90;;;20.90;99.90;;;;;;5018581;28;21019;-71
2022/08/24 06:27:22;;;;;;;1999.90;999.90;;;21.10;99.90;;;;;;5017439;28;20995;-71
2022/08/24 06:29:56;;;;;;;1999.90;999.90;;;21.20;99.90;;;;;;5011757;28;20954;-71
2022/08/24 06:32:22;;;;;;;1999.90;999.90;;;21.30;99.90;;;;;;5011694;28;20789;-72
2022/08/24 06:34:49;;;;;;;1999.90;999.90;;;21.30;99.90;;;;;;5011682;28;20421;-71
2022/08/24 06:37:15;;;;;;;1999.90;999.90;;;21.50;99.90;;;;;;5011205;28;20452;-71
2022/08/24 06:39:41;;;;;;;1999.90;999.90;;;21.60;99.90;;;;;;5011672;28;20418;-71
2022/08/24 06:42:06;;;;;;;1999.90;999.90;;;21.70;99.90;;;;;;5014217;28;20951;-71
2022/08/24 06:44:32;;;;;;;1999.90;999.90;;;21.80;99.90;;;;;;5015274;28;20262;-71
2022/08/24 06:46:58;;;;;;;1999.90;999.90;;;21.90;99.90;;;;;;5020466;28;20214;-71
2022/08/24 06:49:24;;;;;;;1999.90;999.90;;;22.00;99.90;;;;;;5023862;28;20393;-71
2022/08/24 06:51:50;;;;;;;1999.90;999.90;;;22.10;99.90;;;;;;5023750;28;20184;-71
2022/08/24 06:54:16;;;;;;;1999.90;999.90;;;22.20;99.90;;;;;;5023212;28;20196;-71
2022/08/24 06:56:41;;;;;;;1999.90;999.90;;;22.20;99.90;;;;;;5023305;28;20402;-71
2022/08/24 06:59:07;;;;;;;1999.90;999.90;;;22.30;99.90;;;;;;5022992;28;20468;-71
2022/08/24 07:01:33;;;;;;;1999.90;999.90;;;22.40;99.90;;;;;;5022526;28;20224;-72
2022/08/24 07:03:59;;;;;;;1999.90;999.90;;;22.50;99.90;;;;;;5021519;28;20169;-71
2022/08/24 07:06:25;;;;;;;1999.90;999.90;;;22.60;99.90;;;;;;5019667;28;20414;-71
2022/08/24 07:08:51;;;;;;;1999.90;999.90;;;22.80;99.90;;;;;;5022025;28;20175;-71
2022/08/24 07:11:18;;;;;;;1999.90;999.90;;;22.90;99.90;;;;;;5022237;28;20923;-71
2022/08/24 07:13:46;;;;;;;1999.90;999.90;;;22.90;99.90;;;;;;5021051;28;20807;-72
2022/08/24 07:16:13;;;;;;;1999.90;999.90;;;23.10;99.90;;;;;;5021333;28;20402;-71
2022/08/24 07:18:39;;;;;;;1999.90;999.90;;;23.10;99.90;;;;;;5021888;28;20421;-71
2022/08/24 07:21:05;;;;;;;1999.90;999.90;;;23.20;99.90;;;;;;5022118;28;20415;-71
2022/08/24 07:23:32;;;;;;;1999.90;999.90;;;23.30;99.90;;;;;;5023101;28;20487;-72
2022/08/24 07:26:08;;;;;;;1999.90;999.90;;;23.40;99.90;;;;;;5023368;28;20466;-72
2022/08/24 07:28:38;;;;;;;1999.90;999.90;;;23.50;99.90;;;;;;5023451;28;20412;-72
2022/08/24 07:31:05;;;;;;;1999.90;999.90;;;23.60;99.90;;;;;;5024189;28;20412;-72
2022/08/24 07:33:32;;;;;;;1999.90;999.90;;;23.70;99.90;;;;;;5023865;28;20759;-72
2022/08/24 07:35:58;;;;;;;1999.90;999.90;;;23.80;99.90;;;;;;5023443;28;20413;-72
2022/08/24 07:38:24;;;;;;;1999.90;999.90;;;23.80;99.90;;;;;;5024407;28;20386;-72
2022/08/24 07:40:50;;;;;;;1999.90;999.90;;;23.90;99.90;;;;;;5024061;28;20452;-72
2022/08/24 07:43:16;;;;;;;1999.90;999.90;;;24.00;99.90;;;;;;5023234;28;20275;-72
2022/08/24 07:45:42;;;;;;;1999.90;999.90;;;24.10;99.90;;;;;;5022771;28;20421;-72
2022/08/24 07:48:08;;;;;;;1999.90;999.90;;;24.20;99.90;;;;;;5021639;28;20401;-72
2022/08/24 07:50:33;;;;;;;1999.90;999.90;;;24.30;99.90;;;;;;5022089;28;20196;-72
2022/08/24 07:52:59;;;;;;;1999.90;999.90;;;24.40;99.90;;;;;;5022531;28;20439;-72
2022/08/24 07:55:25;;;;;;;1999.90;999.90;;;24.40;99.90;;;;;;5022452;28;20192;-72
2022/08/24 07:57:51;;;;;;;1999.90;999.90;;;24.50;99.90;;;;;;5013651;28;20176;-72
2022/08/24 08:00:18;;;;;;;1999.90;999.90;;;24.50;99.90;;;;;;5013853;28;21030;-72
2022/08/24 08:02:46;;;;;;;1999.90;999.90;;;24.60;99.90;;;;;;5022898;28;20803;-71
2022/08/24 08:05:18;;;;;;;1999.90;999.90;;;24.60;99.90;;;;;;5022283;28;20416;-72
2022/08/24 08:07:43;;;;;;;1999.90;999.90;;;24.70;99.90;;;;;;5013426;28;20429;-72
2022/08/24 08:10:10;;;;;;;1999.90;999.90;;;24.70;99.90;;;;;;5013608;28;20378;-72
2022/08/24 08:12:36;;;;;;;1999.90;999.90;;;24.80;99.90;;;;;;5013685;28;20235;-72
2022/08/24 08:15:03;;;;;;;1999.90;999.90;;;25.00;99.90;;;;;;5013442;28;20375;-72
2022/08/24 08:17:29;;;;;;;1999.90;999.90;;;25.10;99.90;;;;;;5013162;28;20400;-72
2022/08/24 08:19:55;;;;;;;1999.90;999.90;;;25.20;99.90;;;;;;5013467;28;20943;-72
2022/08/24 08:25:08;;;;;;;1999.90;999.90;;;25.30;99.90;;;;;;5013131;28;20255;-72
2022/08/24 08:27:34;;;;;;;1999.90;999.90;;;25.40;99.90;;;;;;5013095;28;20400;-72
2022/08/24 08:30:00;;;;;;;1999.90;999.90;;;25.60;99.90;;;;;;5013362;28;20371;-72
2022/08/24 08:32:26;;;;;;;1999.90;999.90;;;25.70;99.90;;;;;;5013197;28;20478;-72
2022/08/24 08:34:52;;;;;;;1999.90;999.90;;;25.80;99.90;;;;;;5013306;28;20916;-72
2022/08/24 08:37:18;;;;;;;1999.90;999.90;;;25.90;99.90;;;;;;5012838;28;20391;-72
2022/08/24 08:39:44;;;;;;;1999.90;999.90;;;26.10;99.90;;;;;;5013080;28;20208;-72
2022/08/24 08:42:33;;;;;;;1999.90;999.90;;;26.20;99.90;;;;;;5013167;28;20866;-72
2022/08/24 08:45:04;;;;;;;1999.90;999.90;;;26.30;99.90;;;;;;5012986;28;20462;-72
2022/08/24 08:47:57;;;;;;;1999.90;999.90;;;26.50;99.90;;;;;;5012672;28;20458;-72
2022/08/24 08:50:56;;;;;;;1999.90;999.90;;;26.70;99.90;;;;;;5012758;28;20408;-72
2022/08/24 08:53:54;;;;;;;1999.90;999.90;;;26.90;99.90;;;;;;5012827;28;20504;-72
2022/08/24 08:57:10;;;;;;;1999.90;999.90;;;27.10;99.90;;;;;;4989422;28;20494;-72
2022/08/24 08:59:57;;;;;;;1999.90;999.90;;;27.20;99.90;;;;;;4986928;28;20416;-72
2022/08/24 09:02:48;;;;;;;1999.90;999.90;;;27.20;99.90;;;;;;5012578;28;20475;-72
2022/08/24 09:05:47;;;;;;;1999.90;999.90;;;27.40;99.90;;;;;;5012108;28;20543;-70
2022/08/24 09:08:37;;;;;;;1999.90;999.90;;;27.60;99.90;;;;;;4979486;28;20438;-71
2022/08/24 09:11:22;;;;;;;1999.90;999.90;;;27.90;99.90;;;;;;5012560;28;21236;-71
2022/08/24 09:14:09;;;;;;;1999.90;999.90;;;28.00;99.90;;;;;;5012642;28;20403;-71
2022/08/24 09:16:51;;;;;;;1999.90;999.90;;;28.20;99.90;;;;;;5009874;28;20419;-71
2022/08/24 09:19:36;;;;;;;1999.90;999.90;;;28.30;99.90;;;;;;5012179;28;20398;-70
2022/08/24 09:22:16;;;;;;;1999.90;999.90;;;28.50;99.00;;;;;;5031481;23;20597;-71
2022/08/24 09:24:52;;;;;;;1999.90;999.90;;;28.60;96.90;;;;;;5031844;28;20431;-71
2022/08/24 09:27:48;;;;;;;1999.90;999.90;;;28.70;95.90;;;;;;5011837;28;20427;-71
2022/08/24 09:30:22;;;;;;;1999.90;999.90;;;28.70;95.50;;;;;;5011587;28;20909;-71
2022/08/24 09:33:18;;;;;;;1999.90;999.90;;;29.00;94.50;;;;;;5012075;28;20415;-71
2022/08/24 09:36:28;;;;;;;1999.90;999.90;;;29.20;93.70;;;;;;5011868;28;20914;-71
2022/08/24 09:39:26;;;;;;;1999.90;999.90;;;29.40;92.40;;;;;;4970472;28;20425;-71
2022/08/24 09:41:51;;;;;;;1999.90;999.90;;;29.50;91.30;;;;;;5003092;28;20467;-71
2022/08/24 09:44:29;;;;;;;1999.90;999.90;;;29.70;90.80;;;;;;5011402;28;20411;-71
2022/08/24 09:47:16;;;;;;;1999.90;999.90;;;29.90;89.70;;;;;;5011592;28;20287;-71
2022/08/24 09:49:56;;;;;;;1999.90;999.90;;;30.10;86.20;;;;;;5020731;28;20400;-72
2022/08/24 09:52:34;;;;;;;1999.90;999.90;;;30.30;82.80;;;;;;5026434;28;20428;-71
2022/08/24 09:55:11;;;;;;;1999.90;999.90;;;30.50;79.20;;;;;;5028909;28;20466;-72
2022/08/24 09:57:43;;;;;;;1999.90;999.90;;;30.70;75.40;;;;;;5029307;28;20411;-71
2022/08/24 10:00:12;;;;;;;1999.90;999.90;;;30.80;74.50;;;;;;5027512;28;20423;-71
2022/08/24 10:02:41;;;;;;;1999.90;999.90;;;30.90;67.90;;;;;;5026508;28;20452;-72
2022/08/24 10:05:28;;;;;;;1999.90;999.90;;;30.90;64.90;;;;;;5026854;28;20396;-72
2022/08/24 10:08:33;;;;;;;1999.90;999.90;;;31.00;62.50;;;;;;5039210;28;20403;-72
2022/08/24 10:11:01;;;;;;;1999.90;999.90;;;31.20;59.00;;;;;;5024126;28;20480;-72
2022/08/24 10:14:04;;;;;;;1999.90;999.90;;;31.30;56.40;;;;;;5024492;28;20475;-70
2022/08/24 10:16:48;;;;;;;1999.90;999.90;;;31.40;55.60;;;;;;5027605;28;20423;-72
2022/08/24 10:19:36;;;;;;;1999.90;999.90;;;31.50;53.60;;;;;;5028186;28;20562;-72
2022/08/24 10:22:13;;;;;;;1999.90;999.90;;;31.60;52.90;;;;;;5028063;28;20463;-72
2022/08/24 10:24:38;;;;;;;1999.90;999.90;;;31.70;52.50;;;;;;5026557;28;20431;-72
2022/08/24 10:27:32;;;;;;;1999.90;999.90;;;31.90;51.40;;;;;;5025446;28;20436;-72
2022/08/24 10:30:17;;;;;;;1999.90;999.90;;;32.10;49.70;;;;;;5026413;28;20161;-72
2022/08/24 10:32:48;;;;;;;1999.90;999.90;;;32.10;48.40;;;;;;5017035;28;20400;-72
2022/08/24 10:35:20;;;;;;;1999.90;999.90;;;32.20;48.50;;;;;;5015031;28;20538;-72
2022/08/24 10:41:21;;;;;;;1999.90;999.90;;;32.40;45.40;;;;;;5014990;28;20438;-72
2022/08/24 10:44:02;;;;;;;1999.90;999.90;;;32.20;45.60;;;;;;4987289;28;20885;-72
2022/08/24 10:46:46;;;;;;;1999.90;999.90;;;32.30;45.30;;;;;;5014454;28;20951;-72
2022/08/24 10:49:31;;;;;;;1999.90;999.90;;;32.40;44.30;;;;;;5014681;28;20415;-72
2022/08/24 10:52:23;;;;;;;1999.90;999.90;;;32.60;44.10;;;;;;5014409;28;20404;-72
2022/08/24 10:54:50;;;;;;;1999.90;999.90;;;32.70;41.00;;;;;;4984214;28;20470;-72
2022/08/24 10:57:42;;;;;;;1999.90;999.90;;;32.80;40.90;;;;;;5014272;28;20431;-72
2022/08/24 11:00:13;;;;;;;1999.90;999.90;;;32.90;40.30;;;;;;5014248;28;20396;-72
2022/08/24 11:02:42;;;;;;;1999.90;999.90;;;33.00;39.40;;;;;;5014464;28;20455;-72
2022/08/24 11:05:14;;;;;;;1999.90;999.90;;;33.20;40.30;;;;;;5014423;28;21186;-72
2022/08/24 11:08:03;;;;;;;1999.90;999.90;;;33.50;38.80;;;;;;5013932;28;20500;-72
2022/08/24 11:10:35;;;;;;;1999.90;999.90;;;33.60;36.80;;;;;;5014422;28;20754;-72
2022/08/24 11:13:13;;;;;;;1999.90;999.90;;;33.60;35.80;;;;;;5014064;28;20507;-73
2022/08/24 11:15:56;;;;;;;1999.90;999.90;;;33.70;35.90;;;;;;5014163;28;20511;-72
2022/08/24 11:18:22;;;;;;;1999.90;999.90;;;33.90;36.00;;;;;;5014253;28;20392;-71
2022/08/24 11:20:51;;;;;;;1999.90;999.90;;;33.90;33.90;;;;;;5013887;28;20469;-73
2022/08/24 11:23:27;;;;;;;1999.90;999.90;;;34.00;33.10;;;;;;5014057;28;20208;-72
2022/08/24 11:26:11;;;;;;;1999.90;999.90;;;34.20;33.50;;;;;;5013884;28;20799;-72
2022/08/24 11:28:45;;;;;;;1999.90;999.90;;;34.40;32.80;;;;;;5013503;28;20415;-72
2022/08/24 11:31:19;;;;;;;1999.90;999.90;;;34.50;30.80;;;;;;5013867;28;20408;-72
2022/08/24 11:33:47;;;;;;;1999.90;999.90;;;34.60;31.20;;;;;;5014116;28;20611;-72
2022/08/24 11:36:24;;;;;;;1999.90;999.90;;;34.50;31.10;;;;;;5013225;28;20923;-71
2022/08/24 11:39:44;;;;;;;1999.90;999.90;;;34.50;29.50;;;;;;5013854;28;20542;-73
2022/08/24 11:42:12;;;;;;;1999.90;999.90;;;34.50;28.90;;;;;;4953006;29;20458;-72
2022/08/24 11:44:44;;;;;;;1999.90;999.90;;;34.40;29.50;;;;;;5001870;28;20418;-72
2022/08/24 11:47:33;;;;;;;1999.90;999.90;;;34.50;28.40;;;;;;5013297;28;20456;-72
2022/08/24 11:50:08;;;;;;;1999.90;999.90;;;34.70;28.90;;;;;;5013286;28;20906;-72
2022/08/24 11:52:44;;;;;;;1999.90;999.90;;;34.80;27.40;;;;;;5013651;28;20427;-72
2022/08/24 11:55:35;;;;;;;1999.90;999.90;;;35.10;27.40;;;;;;5017896;28;20440;-72
2022/08/24 11:58:36;;;;;;;1999.90;999.90;;;35.50;26.40;;;;;;5024786;28;20431;-72
2022/08/24 12:01:31;;;;;;;1999.90;999.90;;;36.10;25.50;;;;;;5025113;28;20418;-71
2022/08/24 12:04:24;;;;;;;1999.90;999.90;;;36.40;23.60;;;;;;5026897;28;20435;-72
2022/08/24 12:07:10;;;;;;;1999.90;999.90;;;36.60;22.40;;;;;;5024091;28;20451;-73
2022/08/24 12:09:49;;;;;;;1999.90;999.90;;;36.70;22.90;;;;;;5025391;28;20416;-72
2022/08/24 12:12:23;;;;;;;1999.90;999.90;;;37.50;22.20;;;;;;5025234;28;20412;-72
2022/08/24 12:15:03;;;;;;;1999.90;999.90;;;38.60;21.10;;;;;;5027098;28;20465;-71
2022/08/24 12:17:41;;;;;;;1999.90;999.90;;;39.70;18.80;;;;;;5027437;28;20479;-68
2022/08/24 12:20:15;;;;;;;1999.90;999.90;;;40.30;17.30;;;;;;5025642;28;20392;-68
2022/08/24 12:22:42;;;;;;;1999.90;999.90;;;41.10;15.70;;;;;;5020073;28;20508;-66
2022/08/24 12:26:00;;;;;;;1999.90;999.90;;;41.80;14.40;;;;;;5021448;28;20416;-70
2022/08/24 12:27:56;;;;;;;1999.90;999.90;;;42.50;12.70;;;;;;5069887;23;20496;-69
2022/08/24 12:30:21;;;;;;;1999.90;999.90;;;42.90;10.80;;;;;;5032313;28;20490;-69